createdAt,value
2022-09-07T00:01:39.538Z,2.08
2022-09-07T00:07:02.608Z,2.60
2022-09-07T00:12:25.162Z,2.22
2022-09-07T00:17:47.703Z,1.83
2022-09-07T00:23:10.022Z,2.03
2022-09-07T00:28:33.203Z,6.05
2022-09-07T00:33:59.308Z,3.37
2022-09-07T00:39:21.768Z,3.87
2022-09-07T00:44:44.274Z,3.53
2022-09-07T00:50:44.271Z,7.00
2022-09-07T00:56:07.955Z,2.60
2022-09-07T01:01:30.767Z,4.30
2022-09-07T01:06:55.230Z,2.47
2022-09-07T01:12:17.667Z,6.63
2022-09-07T01:17:52.994Z,3.27
2022-09-07T01:23:35.987Z,3.50
2022-09-07T01:29:07.940Z,5.57
2022-09-07T01:34:31.161Z,3.67
2022-09-07T01:39:57.568Z,2.87
2022-09-07T01:45:25.675Z,3.87
2022-09-07T01:50:56.637Z,5.37
2022-09-07T01:56:27.486Z,3.40
2022-09-07T02:02:16.813Z,5.83
2022-09-07T02:07:49.756Z,2.43
2022-09-07T02:13:18.031Z,6.30
2022-09-07T02:19:04.820Z,4.40
2022-09-07T02:24:34.118Z,4.83
2022-09-07T02:29:56.737Z,3.43
2022-09-07T02:35:19.352Z,2.57
2022-09-07T02:40:41.822Z,7.80
2022-09-07T02:46:23.075Z,5.07
2022-09-07T02:52:11.436Z,2.33
2022-09-07T02:57:58.994Z,11.63
2022-09-07T03:03:34.195Z,4.37
2022-09-07T03:08:59.183Z,3.43
2022-09-07T03:14:24.763Z,2.83
2022-09-07T03:19:46.985Z,3.30
2022-09-07T03:25:10.182Z,2.77
2022-09-07T03:30:33.004Z,2.97
2022-09-07T03:36:00.764Z,4.73
2022-09-07T03:41:23.164Z,3.73
2022-09-07T03:46:45.357Z,2.63
2022-09-07T03:52:07.915Z,2.73
2022-09-07T03:57:30.082Z,3.83
2022-09-07T04:02:52.632Z,6.57
2022-09-07T04:08:14.917Z,2.87
2022-09-07T04:13:37.731Z,5.03
2022-09-07T04:19:00.182Z,5.07
2022-09-07T04:24:23.222Z,6.00
2022-09-07T04:29:45.547Z,3.70
2022-09-07T04:35:07.944Z,3.90
2022-09-07T04:40:30.270Z,4.67
2022-09-07T04:45:52.798Z,5.20
2022-09-07T04:51:16.249Z,8.47
2022-09-07T04:56:38.444Z,3.77
2022-09-07T05:02:01.084Z,12.13
2022-09-07T05:07:23.594Z,3.93
2022-09-07T05:12:46.731Z,4.53
2022-09-07T05:18:09.133Z,5.20
2022-09-07T05:23:31.655Z,6.27
2022-09-07T05:34:36.948Z,4.30
2022-09-07T05:39:59.342Z,6.70
2022-09-07T05:45:21.785Z,4.53
2022-09-07T05:50:51.647Z,7.17
2022-09-07T05:56:14.639Z,9.60
2022-09-07T06:01:36.855Z,5.03
2022-09-07T06:07:20.727Z,3.90
2022-09-07T06:12:48.452Z,4.50
2022-09-07T06:18:12.013Z,5.17
2022-09-07T06:23:36.571Z,6.80
2022-09-07T06:28:59.121Z,6.03
2022-09-07T06:34:22.944Z,6.43
2022-09-07T06:39:45.237Z,7.17
2022-09-07T06:45:07.860Z,5.23
2022-09-07T06:50:30.246Z,7.60
2022-09-07T06:55:53.482Z,5.67
2022-09-07T07:01:18.042Z,9.83
2022-09-07T07:06:40.510Z,8.70
2022-09-07T07:12:03.021Z,9.47
2022-09-07T07:17:25.523Z,5.23
2022-09-07T07:22:54.562Z,3.93
2022-09-07T07:33:59.452Z,8.37
2022-09-07T07:51:21.156Z,6.00
2022-09-07T07:56:43.623Z,6.20
2022-09-07T08:02:08.921Z,5.82
2022-09-07T08:07:31.314Z,4.53
2022-09-07T08:12:53.741Z,5.13
2022-09-07T08:18:17.210Z,7.63
2022-09-07T08:23:40.257Z,5.78
2022-09-07T08:29:02.747Z,6.97
2022-09-07T08:34:24.947Z,8.15
2022-09-07T08:39:47.127Z,10.25
2022-09-07T08:45:14.899Z,9.35
2022-09-07T08:50:46.103Z,5.32
2022-09-07T08:56:19.131Z,14.00
2022-09-07T09:02:26.324Z,8.18
2022-09-07T09:07:38.910Z,8.75
2022-09-07T09:13:15.857Z,13.18
2022-09-07T09:19:05.434Z,8.07
2022-09-07T09:24:37.715Z,5.85
2022-09-07T09:30:00.328Z,8.55
2022-09-07T09:35:34.596Z,11.07
2022-09-07T09:41:00.426Z,5.95
2022-09-07T09:46:37.743Z,7.78
2022-09-07T10:09:22.364Z,5.90
2022-09-07T10:14:47.199Z,5.18
2022-09-07T10:20:21.526Z,13.77
2022-09-07T10:25:47.632Z,6.80
2022-09-07T10:31:25.212Z,5.43
2022-09-07T10:37:11.220Z,7.72
2022-09-07T10:42:38.520Z,7.82
2022-09-07T10:48:24.444Z,8.13
2022-09-07T10:54:30.384Z,5.75
2022-09-07T11:00:16.301Z,8.05
2022-09-07T11:05:51.176Z,11.20
2022-09-07T11:17:20.800Z,10.05
2022-09-07T11:22:49.890Z,11.98
2022-09-07T11:28:21.070Z,11.18
2022-09-07T11:40:06.894Z,11.25
2022-09-07T11:45:51.319Z,8.93
2022-09-07T11:51:29.931Z,8.45
2022-09-07T11:57:06.943Z,7.13
2022-09-07T12:03:01.089Z,12.10
2022-09-07T12:08:29.765Z,7.55
2022-09-07T12:13:51.826Z,9.50
2022-09-07T12:19:18.180Z,9.65
2022-09-07T12:24:45.398Z,8.77
2022-09-07T12:30:13.476Z,10.93
2022-09-07T12:35:42.843Z,7.43
2022-09-07T12:41:23.964Z,8.60
2022-09-07T12:46:50.810Z,9.15
2022-09-07T12:52:43.333Z,13.90
2022-09-07T12:58:14.159Z,7.43
2022-09-07T13:04:17.562Z,9.13
2022-09-07T13:09:41.574Z,7.68
2022-09-07T13:15:05.681Z,6.32
2022-09-07T13:20:36.067Z,6.97
2022-09-07T13:26:02.374Z,8.45
2022-09-07T13:31:37.109Z,6.93
2022-09-07T13:37:00.900Z,6.88
2022-09-07T13:42:30.274Z,8.75
2022-09-07T13:48:19.196Z,8.02
2022-09-07T13:53:44.710Z,6.95
2022-09-07T13:59:36.326Z,10.07
2022-09-07T14:05:00.587Z,9.77
2022-09-07T14:10:25.648Z,7.07
2022-09-07T14:15:50.436Z,6.88
2022-09-07T14:21:19.044Z,8.90
2022-09-07T14:26:49.176Z,6.43
2022-09-07T14:32:23.699Z,6.60
2022-09-07T14:37:47.636Z,6.57
2022-09-07T14:43:29.567Z,5.90
2022-09-07T14:49:05.020Z,8.57
2022-09-07T14:54:34.043Z,6.20
2022-09-07T14:59:57.465Z,8.65
2022-09-07T15:05:23.260Z,9.30
2022-09-07T15:11:32.964Z,11.80
2022-09-07T15:16:34.652Z,9.43
2022-09-07T15:21:57.083Z,7.75
2022-09-07T15:27:28.846Z,11.65
2022-09-07T15:32:51.299Z,5.95
2022-09-07T15:43:56.812Z,7.40
2022-09-07T15:49:19.533Z,9.93
2022-09-07T15:54:43.463Z,10.95
2022-09-07T16:00:07.362Z,6.55
2022-09-07T16:05:34.970Z,7.35
2022-09-07T16:11:05.485Z,8.10
2022-09-07T16:23:13.300Z,9.82
2022-09-07T16:27:57.283Z,5.50
2022-09-07T16:33:21.105Z,7.55
2022-09-07T16:38:48.350Z,13.43
2022-09-07T16:44:11.276Z,6.47
2022-09-07T16:49:33.738Z,12.82
2022-09-07T16:54:56.016Z,8.25
2022-09-07T17:00:18.412Z,8.43
2022-09-07T17:05:41.273Z,12.00
2022-09-07T17:11:12.567Z,9.48
2022-09-07T17:16:38.123Z,13.27
2022-09-07T17:22:00.837Z,9.73
2022-09-07T17:27:23.556Z,13.98
2022-09-07T17:32:46.000Z,9.48
2022-09-07T17:43:56.173Z,8.15
2022-09-07T17:49:18.336Z,7.03
2022-09-07T17:54:40.715Z,12.80
2022-09-07T18:00:11.804Z,9.75
2022-09-07T18:05:34.644Z,17.35
2022-09-07T18:16:50.221Z,10.55
2022-09-07T18:22:13.035Z,14.75
2022-09-07T18:27:36.915Z,10.68
2022-09-07T18:32:59.424Z,11.23
2022-09-07T18:38:22.421Z,15.60
2022-09-07T18:43:47.064Z,10.75
2022-09-07T18:49:09.158Z,17.30
2022-09-07T18:54:31.415Z,12.77
2022-09-07T18:59:53.746Z,13.15
2022-09-07T19:11:09.601Z,12.77
2022-09-07T19:16:32.971Z,18.05
2022-09-07T19:21:57.671Z,13.45
2022-09-07T19:27:20.147Z,15.15
2022-09-07T19:32:42.966Z,13.38
2022-09-07T19:38:05.741Z,16.10
2022-09-07T19:43:33.701Z,12.95
2022-09-07T19:48:56.707Z,13.73
2022-09-07T19:54:19.243Z,15.68
2022-09-07T19:59:41.877Z,17.30
2022-09-07T20:05:05.123Z,16.05
2022-09-07T20:10:27.974Z,14.73
2022-09-07T20:15:50.438Z,11.40
2022-09-07T20:21:22.021Z,12.57
2022-09-07T20:26:44.288Z,12.73
2022-09-07T20:32:06.889Z,11.30
2022-09-07T20:37:28.975Z,10.07
2022-09-07T20:42:51.684Z,10.50
2022-09-07T20:48:15.190Z,8.38
2022-09-07T20:53:38.042Z,9.70
2022-09-07T20:59:02.378Z,8.95
2022-09-07T21:04:26.476Z,7.55
2022-09-07T21:09:49.442Z,9.98
2022-09-07T21:15:11.648Z,7.53
2022-09-07T21:20:34.540Z,11.90
2022-09-07T21:25:57.960Z,7.85
2022-09-07T21:31:20.412Z,7.60
2022-09-07T21:36:44.293Z,9.30
2022-09-07T21:42:06.670Z,6.33
2022-09-07T21:47:28.867Z,9.25
2022-09-07T21:52:51.096Z,9.33
2022-09-07T21:58:13.336Z,8.10
2022-09-07T22:03:35.510Z,10.20
2022-09-07T22:08:58.747Z,12.33
2022-09-07T22:14:20.773Z,10.37
2022-09-07T22:19:45.127Z,9.07
2022-09-07T22:25:07.639Z,6.40
2022-09-07T22:30:29.790Z,5.75
2022-09-07T22:35:52.008Z,9.17
2022-09-07T22:41:20.117Z,7.30
2022-09-07T22:46:44.498Z,9.23
2022-09-07T22:52:07.079Z,9.43
2022-09-07T22:57:29.804Z,5.90
2022-09-07T23:02:52.331Z,4.80
2022-09-07T23:08:14.690Z,8.27
2022-09-07T23:13:37.209Z,10.20
2022-09-07T23:19:00.723Z,8.37
2022-09-07T23:24:23.323Z,10.87
2022-09-07T23:29:46.546Z,7.60
2022-09-07T23:35:11.703Z,4.87
2022-09-07T23:40:36.157Z,8.00
2022-09-07T23:45:59.952Z,5.63
2022-09-07T23:51:24.740Z,5.30
2022-09-07T23:56:47.053Z,4.13
